sensor_id;sensor_type;location;lat;lon;timestamp;P1;durP1;ratioP1;P2;durP2;ratioP2
68432;SDS011;55412;51.350;17.056;2023-02-15T00:01:55;29.80;;;10.75;;
68432;SDS011;55412;51.350;17.056;2023-02-15T00:04:23;26.45;;;10.15;;
68432;SDS011;55412;51.350;17.056;2023-02-15T00:07:10;29.47;;;10.43;;
68432;SDS011;55412;51.350;17.056;2023-02-15T00:09:37;27.25;;;10.35;;
68432;SDS011;55412;51.350;17.056;2023-02-15T00:12:03;26.38;;;9.13;;
68432;SDS011;55412;51.350;17.056;2023-02-15T00:14:29;27.35;;;9.90;;
68432;SDS011;55412;51.350;17.056;2023-02-15T00:16:55;28.17;;;9.93;;
68432;SDS011;55412;51.350;17.056;2023-02-15T00:19:24;26.80;;;8.57;;
68432;SDS011;55412;51.350;17.056;2023-02-15T00:21:50;20.50;;;7.93;;
68432;SDS011;55412;51.350;17.056;2023-02-15T00:24:17;25.35;;;9.23;;
68432;SDS011;55412;51.350;17.056;2023-02-15T00:26:45;27.40;;;9.73;;
68432;SDS011;55412;51.350;17.056;2023-02-15T00:29:12;23.30;;;8.40;;
68432;SDS011;55412;51.350;17.056;2023-02-15T00:31:40;23.88;;;8.13;;
68432;SDS011;55412;51.350;17.056;2023-02-15T00:34:07;22.67;;;8.35;;
68432;SDS011;55412;51.350;17.056;2023-02-15T00:36:39;28.83;;;10.25;;
68432;SDS011;55412;51.350;17.056;2023-02-15T00:39:05;19.58;;;7.88;;
68432;SDS011;55412;51.350;17.056;2023-02-15T00:41:31;24.03;;;7.83;;
68432;SDS011;55412;51.350;17.056;2023-02-15T00:43:58;22.95;;;7.90;;
68432;SDS011;55412;51.350;17.056;2023-02-15T00:46:24;23.20;;;9.52;;
68432;SDS011;55412;51.350;17.056;2023-02-15T00:48:50;25.33;;;8.38;;
68432;SDS011;55412;51.350;17.056;2023-02-15T00:51:16;24.48;;;9.15;;
68432;SDS011;55412;51.350;17.056;2023-02-15T00:53:43;27.33;;;8.50;;
68432;SDS011;55412;51.350;17.056;2023-02-15T00:56:10;25.65;;;9.38;;
68432;SDS011;55412;51.350;17.056;2023-02-15T00:58:36;24.83;;;8.55;;
68432;SDS011;55412;51.350;17.056;2023-02-15T01:01:09;28.63;;;9.82;;
68432;SDS011;55412;51.350;17.056;2023-02-15T01:03:38;29.65;;;10.27;;
68432;SDS011;55412;51.350;17.056;2023-02-15T01:06:06;27.20;;;10.13;;
68432;SDS011;55412;51.350;17.056;2023-02-15T01:08:33;31.15;;;11.88;;
68432;SDS011;55412;51.350;17.056;2023-02-15T01:11:06;34.88;;;12.38;;
68432;SDS011;55412;51.350;17.056;2023-02-15T01:13:39;28.55;;;10.70;;
68432;SDS011;55412;51.350;17.056;2023-02-15T01:16:05;36.60;;;13.07;;
68432;SDS011;55412;51.350;17.056;2023-02-15T01:18:32;30.10;;;10.53;;
68432;SDS011;55412;51.350;17.056;2023-02-15T01:20:59;31.08;;;11.40;;
68432;SDS011;55412;51.350;17.056;2023-02-15T01:23:34;31.02;;;10.48;;
68432;SDS011;55412;51.350;17.056;2023-02-15T01:26:03;32.08;;;11.60;;
68432;SDS011;55412;51.350;17.056;2023-02-15T01:28:29;35.30;;;12.45;;
68432;SDS011;55412;51.350;17.056;2023-02-15T01:30:56;31.77;;;10.97;;
68432;SDS011;55412;51.350;17.056;2023-02-15T01:33:22;29.63;;;10.55;;
68432;SDS011;55412;51.350;17.056;2023-02-15T01:35:48;26.25;;;10.35;;
68432;SDS011;55412;51.350;17.056;2023-02-15T01:38:14;30.98;;;11.70;;
68432;SDS011;55412;51.350;17.056;2023-02-15T01:40:40;28.10;;;10.67;;
68432;SDS011;55412;51.350;17.056;2023-02-15T01:43:10;29.15;;;11.45;;
68432;SDS011;55412;51.350;17.056;2023-02-15T01:45:37;27.50;;;10.77;;
68432;SDS011;55412;51.350;17.056;2023-02-15T01:50:53;30.92;;;11.15;;
68432;SDS011;55412;51.350;17.056;2023-02-15T01:53:24;28.83;;;10.87;;
68432;SDS011;55412;51.350;17.056;2023-02-15T01:58:35;29.70;;;10.88;;
68432;SDS011;55412;51.350;17.056;2023-02-15T02:01:02;30.95;;;11.05;;
68432;SDS011;55412;51.350;17.056;2023-02-15T02:06:27;33.30;;;11.50;;
68432;SDS011;55412;51.350;17.056;2023-02-15T02:08:54;26.42;;;10.85;;
68432;SDS011;55412;51.350;17.056;2023-02-15T02:11:21;31.25;;;11.88;;
68432;SDS011;55412;51.350;17.056;2023-02-15T02:13:47;30.60;;;11.48;;
68432;SDS011;55412;51.350;17.056;2023-02-15T02:16:20;28.85;;;10.85;;
68432;SDS011;55412;51.350;17.056;2023-02-15T02:25:13;26.45;;;9.88;;
68432;SDS011;55412;51.350;17.056;2023-02-15T02:28:03;25.17;;;9.90;;
68432;SDS011;55412;51.350;17.056;2023-02-15T02:34:32;29.40;;;10.07;;
68432;SDS011;55412;51.350;17.056;2023-02-15T02:37:15;24.45;;;10.05;;
68432;SDS011;55412;51.350;17.056;2023-02-15T02:45:24;22.25;;;9.13;;
68432;SDS011;55412;51.350;17.056;2023-02-15T02:48:20;22.33;;;9.00;;
68432;SDS011;55412;51.350;17.056;2023-02-15T02:50:51;32.40;;;10.50;;
68432;SDS011;55412;51.350;17.056;2023-02-15T02:53:17;37.22;;;12.70;;
68432;SDS011;55412;51.350;17.056;2023-02-15T03:01:16;29.30;;;10.30;;
68432;SDS011;55412;51.350;17.056;2023-02-15T03:04:01;30.65;;;11.20;;
68432;SDS011;55412;51.350;17.056;2023-02-15T03:06:38;28.00;;;11.02;;
68432;SDS011;55412;51.350;17.056;2023-02-15T03:09:15;30.58;;;12.48;;
68432;SDS011;55412;51.350;17.056;2023-02-15T03:11:50;27.38;;;10.02;;
68432;SDS011;55412;51.350;17.056;2023-02-15T03:14:17;21.40;;;9.00;;
68432;SDS011;55412;51.350;17.056;2023-02-15T03:16:45;25.02;;;9.80;;
68432;SDS011;55412;51.350;17.056;2023-02-15T03:19:15;30.58;;;10.98;;
68432;SDS011;55412;51.350;17.056;2023-02-15T03:21:49;30.95;;;11.25;;
68432;SDS011;55412;51.350;17.056;2023-02-15T03:24:35;30.42;;;11.00;;
68432;SDS011;55412;51.350;17.056;2023-02-15T03:27:12;31.33;;;11.07;;
68432;SDS011;55412;51.350;17.056;2023-02-15T03:29:50;32.60;;;11.02;;
68432;SDS011;55412;51.350;17.056;2023-02-15T03:32:22;34.50;;;12.85;;
68432;SDS011;55412;51.350;17.056;2023-02-15T03:34:51;29.40;;;11.63;;
68432;SDS011;55412;51.350;17.056;2023-02-15T03:40:23;28.60;;;10.90;;
68432;SDS011;55412;51.350;17.056;2023-02-15T03:45:58;18.90;;;7.15;;
68432;SDS011;55412;51.350;17.056;2023-02-15T03:49:09;23.15;;;9.32;;
68432;SDS011;55412;51.350;17.056;2023-02-15T03:51:59;29.33;;;10.77;;
68432;SDS011;55412;51.350;17.056;2023-02-15T03:54:28;26.13;;;10.47;;
68432;SDS011;55412;51.350;17.056;2023-02-15T03:57:19;30.95;;;11.38;;
68432;SDS011;55412;51.350;17.056;2023-02-15T04:03:11;22.55;;;7.10;;
68432;SDS011;55412;51.350;17.056;2023-02-15T04:05:41;21.75;;;8.07;;
68432;SDS011;55412;51.350;17.056;2023-02-15T04:08:10;24.73;;;8.53;;
68432;SDS011;55412;51.350;17.056;2023-02-15T04:10:37;24.05;;;8.93;;
68432;SDS011;55412;51.350;17.056;2023-02-15T04:13:20;23.48;;;7.97;;
68432;SDS011;55412;51.350;17.056;2023-02-15T04:15:48;25.38;;;9.55;;
68432;SDS011;55412;51.350;17.056;2023-02-15T04:18:31;21.98;;;8.82;;
68432;SDS011;55412;51.350;17.056;2023-02-15T04:21:17;19.03;;;8.00;;
68432;SDS011;55412;51.350;17.056;2023-02-15T04:24:02;17.20;;;7.57;;
68432;SDS011;55412;51.350;17.056;2023-02-15T04:26:47;18.80;;;6.63;;
68432;SDS011;55412;51.350;17.056;2023-02-15T04:29:14;21.55;;;6.53;;
68432;SDS011;55412;51.350;17.056;2023-02-15T04:31:41;23.80;;;7.35;;
68432;SDS011;55412;51.350;17.056;2023-02-15T04:34:08;22.30;;;7.83;;
68432;SDS011;55412;51.350;17.056;2023-02-15T04:36:35;24.38;;;8.07;;
68432;SDS011;55412;51.350;17.056;2023-02-15T04:39:05;22.33;;;8.52;;
68432;SDS011;55412;51.350;17.056;2023-02-15T04:41:32;24.40;;;7.80;;
68432;SDS011;55412;51.350;17.056;2023-02-15T04:43:59;20.45;;;7.20;;
68432;SDS011;55412;51.350;17.056;2023-02-15T04:46:26;23.00;;;7.20;;
68432;SDS011;55412;51.350;17.056;2023-02-15T04:48:53;23.77;;;7.47;;
68432;SDS011;55412;51.350;17.056;2023-02-15T04:51:20;27.98;;;8.57;;
68432;SDS011;55412;51.350;17.056;2023-02-15T04:53:47;26.40;;;8.10;;
68432;SDS011;55412;51.350;17.056;2023-02-15T04:56:13;23.48;;;8.45;;
68432;SDS011;55412;51.350;17.056;2023-02-15T04:58:39;23.77;;;8.47;;
68432;SDS011;55412;51.350;17.056;2023-02-15T05:01:09;19.80;;;8.60;;
68432;SDS011;55412;51.350;17.056;2023-02-15T05:03:36;21.38;;;8.30;;
68432;SDS011;55412;51.350;17.056;2023-02-15T05:06:02;21.35;;;7.32;;
68432;SDS011;55412;51.350;17.056;2023-02-15T05:08:29;24.58;;;7.75;;
68432;SDS011;55412;51.350;17.056;2023-02-15T05:10:56;21.50;;;7.50;;
68432;SDS011;55412;51.350;17.056;2023-02-15T05:13:22;17.90;;;7.25;;
68432;SDS011;55412;51.350;17.056;2023-02-15T05:15:50;19.98;;;7.35;;
68432;SDS011;55412;51.350;17.056;2023-02-15T05:18:18;26.50;;;8.07;;
68432;SDS011;55412;51.350;17.056;2023-02-15T05:20:47;20.67;;;5.70;;
68432;SDS011;55412;51.350;17.056;2023-02-15T05:23:14;18.57;;;7.03;;
68432;SDS011;55412;51.350;17.056;2023-02-15T05:25:40;17.13;;;4.40;;
68432;SDS011;55412;51.350;17.056;2023-02-15T05:28:25;14.25;;;5.28;;
68432;SDS011;55412;51.350;17.056;2023-02-15T05:31:03;21.27;;;8.45;;
68432;SDS011;55412;51.350;17.056;2023-02-15T05:33:32;17.17;;;5.93;;
68432;SDS011;55412;51.350;17.056;2023-02-15T05:35:59;20.20;;;7.43;;
68432;SDS011;55412;51.350;17.056;2023-02-15T05:38:26;13.40;;;6.10;;
68432;SDS011;55412;51.350;17.056;2023-02-15T05:40:52;21.50;;;7.05;;
68432;SDS011;55412;51.350;17.056;2023-02-15T05:43:19;18.15;;;7.65;;
68432;SDS011;55412;51.350;17.056;2023-02-15T05:45:46;21.55;;;7.82;;
68432;SDS011;55412;51.350;17.056;2023-02-15T05:48:13;20.80;;;8.13;;
68432;SDS011;55412;51.350;17.056;2023-02-15T05:50:40;24.30;;;10.18;;
68432;SDS011;55412;51.350;17.056;2023-02-15T05:53:06;24.00;;;8.20;;
68432;SDS011;55412;51.350;17.056;2023-02-15T05:55:32;29.70;;;12.85;;
68432;SDS011;55412;51.350;17.056;2023-02-15T05:57:58;32.03;;;13.98;;
68432;SDS011;55412;51.350;17.056;2023-02-15T06:00:24;24.70;;;8.30;;
68432;SDS011;55412;51.350;17.056;2023-02-15T06:02:50;20.70;;;9.05;;
68432;SDS011;55412;51.350;17.056;2023-02-15T06:05:16;24.27;;;8.27;;
68432;SDS011;55412;51.350;17.056;2023-02-15T06:07:43;21.50;;;6.78;;
68432;SDS011;55412;51.350;17.056;2023-02-15T06:10:12;22.52;;;7.25;;
68432;SDS011;55412;51.350;17.056;2023-02-15T06:12:38;29.70;;;12.43;;
68432;SDS011;55412;51.350;17.056;2023-02-15T06:15:04;29.10;;;10.77;;
68432;SDS011;55412;51.350;17.056;2023-02-15T06:17:30;12.60;;;5.43;;
68432;SDS011;55412;51.350;17.056;2023-02-15T06:19:56;23.65;;;8.32;;
68432;SDS011;55412;51.350;17.056;2023-02-15T06:22:22;27.38;;;8.40;;
68432;SDS011;55412;51.350;17.056;2023-02-15T06:24:48;22.37;;;8.10;;
68432;SDS011;55412;51.350;17.056;2023-02-15T06:27:14;32.88;;;11.43;;
68432;SDS011;55412;51.350;17.056;2023-02-15T06:29:40;26.00;;;8.48;;
68432;SDS011;55412;51.350;17.056;2023-02-15T06:32:06;30.75;;;11.85;;
68432;SDS011;55412;51.350;17.056;2023-02-15T06:34:32;26.43;;;8.67;;
68432;SDS011;55412;51.350;17.056;2023-02-15T06:36:58;24.13;;;8.57;;
68432;SDS011;55412;51.350;17.056;2023-02-15T06:39:24;26.95;;;9.00;;
68432;SDS011;55412;51.350;17.056;2023-02-15T06:41:50;27.23;;;9.98;;
68432;SDS011;55412;51.350;17.056;2023-02-15T06:44:16;15.37;;;6.10;;
68432;SDS011;55412;51.350;17.056;2023-02-15T06:46:42;14.35;;;6.38;;
68432;SDS011;55412;51.350;17.056;2023-02-15T06:49:08;21.27;;;8.23;;
68432;SDS011;55412;51.350;17.056;2023-02-15T06:51:34;14.02;;;5.30;;
68432;SDS011;55412;51.350;17.056;2023-02-15T06:54:00;10.98;;;4.43;;
68432;SDS011;55412;51.350;17.056;2023-02-15T06:56:26;22.17;;;8.03;;
68432;SDS011;55412;51.350;17.056;2023-02-15T06:58:52;22.73;;;9.00;;
68432;SDS011;55412;51.350;17.056;2023-02-15T07:01:18;24.35;;;8.45;;
68432;SDS011;55412;51.350;17.056;2023-02-15T07:03:44;20.50;;;8.00;;
68432;SDS011;55412;51.350;17.056;2023-02-15T07:06:11;16.38;;;6.70;;
68432;SDS011;55412;51.350;17.056;2023-02-15T07:08:37;19.87;;;8.30;;
68432;SDS011;55412;51.350;17.056;2023-02-15T07:11:04;17.48;;;8.15;;
68432;SDS011;55412;51.350;17.056;2023-02-15T07:13:50;15.73;;;5.82;;
68432;SDS011;55412;51.350;17.056;2023-02-15T07:16:17;18.67;;;6.22;;
68432;SDS011;55412;51.350;17.056;2023-02-15T07:18:44;20.50;;;6.68;;
68432;SDS011;55412;51.350;17.056;2023-02-15T07:21:10;15.20;;;6.73;;
68432;SDS011;55412;51.350;17.056;2023-02-15T07:23:37;13.70;;;4.07;;
68432;SDS011;55412;51.350;17.056;2023-02-15T07:26:05;15.15;;;6.47;;
68432;SDS011;55412;51.350;17.056;2023-02-15T07:28:32;23.30;;;7.60;;
68432;SDS011;55412;51.350;17.056;2023-02-15T07:31:03;20.13;;;8.02;;
68432;SDS011;55412;51.350;17.056;2023-02-15T07:33:30;23.97;;;9.33;;
68432;SDS011;55412;51.350;17.056;2023-02-15T07:35:58;23.13;;;7.97;;
68432;SDS011;55412;51.350;17.056;2023-02-15T07:38:29;25.80;;;10.15;;
68432;SDS011;55412;51.350;17.056;2023-02-15T07:41:05;26.63;;;9.38;;
68432;SDS011;55412;51.350;17.056;2023-02-15T07:43:34;22.35;;;8.38;;
68432;SDS011;55412;51.350;17.056;2023-02-15T07:46:04;14.77;;;5.67;;
68432;SDS011;55412;51.350;17.056;2023-02-15T07:48:37;21.05;;;9.35;;
68432;SDS011;55412;51.350;17.056;2023-02-15T07:51:04;26.85;;;9.88;;
68432;SDS011;55412;51.350;17.056;2023-02-15T07:53:33;20.17;;;8.27;;
68432;SDS011;55412;51.350;17.056;2023-02-15T07:56:01;22.13;;;10.57;;
68432;SDS011;55412;51.350;17.056;2023-02-15T07:58:31;26.10;;;12.10;;
68432;SDS011;55412;51.350;17.056;2023-02-15T08:01:16;16.02;;;6.97;;
68432;SDS011;55412;51.350;17.056;2023-02-15T08:03:52;24.30;;;12.10;;
68432;SDS011;55412;51.350;17.056;2023-02-15T08:06:20;28.35;;;12.05;;
68432;SDS011;55412;51.350;17.056;2023-02-15T08:08:51;33.47;;;14.40;;
68432;SDS011;55412;51.350;17.056;2023-02-15T08:11:18;29.97;;;12.67;;
68432;SDS011;55412;51.350;17.056;2023-02-15T08:14:03;36.75;;;16.70;;
68432;SDS011;55412;51.350;17.056;2023-02-15T08:16:38;21.65;;;10.18;;
68432;SDS011;55412;51.350;17.056;2023-02-15T08:19:10;30.70;;;14.00;;
68432;SDS011;55412;51.350;17.056;2023-02-15T08:21:49;31.45;;;16.08;;
68432;SDS011;55412;51.350;17.056;2023-02-15T08:24:25;28.33;;;11.77;;
68432;SDS011;55412;51.350;17.056;2023-02-15T08:26:53;39.22;;;17.10;;
68432;SDS011;55412;51.350;17.056;2023-02-15T08:29:21;30.73;;;14.32;;
68432;SDS011;55412;51.350;17.056;2023-02-15T08:31:52;26.38;;;12.88;;
68432;SDS011;55412;51.350;17.056;2023-02-15T08:34:27;26.60;;;11.32;;
68432;SDS011;55412;51.350;17.056;2023-02-15T08:36:55;29.57;;;13.17;;
68432;SDS011;55412;51.350;17.056;2023-02-15T08:39:22;32.05;;;15.32;;
68432;SDS011;55412;51.350;17.056;2023-02-15T08:41:48;20.73;;;10.88;;
68432;SDS011;55412;51.350;17.056;2023-02-15T08:44:15;23.15;;;10.18;;
68432;SDS011;55412;51.350;17.056;2023-02-15T08:46:44;23.52;;;10.88;;
68432;SDS011;55412;51.350;17.056;2023-02-15T08:49:13;23.43;;;11.97;;
68432;SDS011;55412;51.350;17.056;2023-02-15T08:51:46;20.40;;;9.82;;
68432;SDS011;55412;51.350;17.056;2023-02-15T08:54:14;23.90;;;10.82;;
68432;SDS011;55412;51.350;17.056;2023-02-15T08:56:43;22.80;;;11.50;;
68432;SDS011;55412;51.350;17.056;2023-02-15T08:59:17;17.67;;;8.57;;
68432;SDS011;55412;51.350;17.056;2023-02-15T09:01:46;24.10;;;10.43;;
68432;SDS011;55412;51.350;17.056;2023-02-15T09:04:14;19.52;;;8.52;;
68432;SDS011;55412;51.350;17.056;2023-02-15T09:06:41;19.45;;;9.43;;
68432;SDS011;55412;51.350;17.056;2023-02-15T09:09:09;25.08;;;11.02;;
68432;SDS011;55412;51.350;17.056;2023-02-15T09:11:37;22.58;;;9.00;;
68432;SDS011;55412;51.350;17.056;2023-02-15T09:14:07;25.10;;;11.20;;
68432;SDS011;55412;51.350;17.056;2023-02-15T09:16:45;19.42;;;8.95;;
68432;SDS011;55412;51.350;17.056;2023-02-15T09:19:14;23.98;;;10.38;;
68432;SDS011;55412;51.350;17.056;2023-02-15T09:21:42;26.23;;;11.63;;
68432;SDS011;55412;51.350;17.056;2023-02-15T09:24:10;21.35;;;9.20;;
68432;SDS011;55412;51.350;17.056;2023-02-15T09:26:39;18.67;;;9.23;;
68432;SDS011;55412;51.350;17.056;2023-02-15T09:29:08;20.38;;;9.57;;
68432;SDS011;55412;51.350;17.056;2023-02-15T09:31:40;22.50;;;10.15;;
68432;SDS011;55412;51.350;17.056;2023-02-15T09:34:12;20.75;;;7.63;;
68432;SDS011;55412;51.350;17.056;2023-02-15T09:36:44;20.20;;;9.30;;
68432;SDS011;55412;51.350;17.056;2023-02-15T09:39:12;26.37;;;15.30;;
68432;SDS011;55412;51.350;17.056;2023-02-15T09:45:16;24.92;;;11.57;;
68432;SDS011;55412;51.350;17.056;2023-02-15T09:48:04;21.98;;;10.27;;
68432;SDS011;55412;51.350;17.056;2023-02-15T09:50:45;16.63;;;7.97;;
68432;SDS011;55412;51.350;17.056;2023-02-15T09:54:09;32.33;;;10.90;;
68432;SDS011;55412;51.350;17.056;2023-02-15T09:57:00;19.88;;;9.05;;
68432;SDS011;55412;51.350;17.056;2023-02-15T10:03:09;22.05;;;9.43;;
68432;SDS011;55412;51.350;17.056;2023-02-15T10:06:10;23.67;;;10.68;;
68432;SDS011;55412;51.350;17.056;2023-02-15T10:27:07;25.33;;;10.43;;
68432;SDS011;55412;51.350;17.056;2023-02-15T10:29:39;30.00;;;13.95;;
68432;SDS011;55412;51.350;17.056;2023-02-15T10:32:26;20.90;;;9.45;;
68432;SDS011;55412;51.350;17.056;2023-02-15T10:40:46;27.45;;;13.27;;
68432;SDS011;55412;51.350;17.056;2023-02-15T10:58:51;24.13;;;10.95;;
68432;SDS011;55412;51.350;17.056;2023-02-15T11:01:51;19.77;;;8.95;;
68432;SDS011;55412;51.350;17.056;2023-02-15T11:07:41;25.13;;;11.47;;
68432;SDS011;55412;51.350;17.056;2023-02-15T11:10:32;23.33;;;11.48;;
68432;SDS011;55412;51.350;17.056;2023-02-15T11:13:09;21.35;;;9.95;;
68432;SDS011;55412;51.350;17.056;2023-02-15T11:18:23;26.90;;;12.45;;
68432;SDS011;55412;51.350;17.056;2023-02-15T11:23:45;26.25;;;10.80;;
68432;SDS011;55412;51.350;17.056;2023-02-15T11:26:25;32.47;;;16.40;;
68432;SDS011;55412;51.350;17.056;2023-02-15T11:29:33;29.65;;;11.68;;
68432;SDS011;55412;51.350;17.056;2023-02-15T11:32:26;29.05;;;13.60;;
68432;SDS011;55412;51.350;17.056;2023-02-15T11:40:47;26.83;;;11.20;;
68432;SDS011;55412;51.350;17.056;2023-02-15T11:43:28;19.05;;;9.27;;
68432;SDS011;55412;51.350;17.056;2023-02-15T11:46:23;28.20;;;12.23;;
68432;SDS011;55412;51.350;17.056;2023-02-15T11:48:49;22.47;;;11.03;;
68432;SDS011;55412;51.350;17.056;2023-02-15T11:51:16;23.73;;;9.90;;
68432;SDS011;55412;51.350;17.056;2023-02-15T11:53:46;22.42;;;11.23;;
68432;SDS011;55412;51.350;17.056;2023-02-15T11:56:17;28.90;;;11.23;;
68432;SDS011;55412;51.350;17.056;2023-02-15T11:58:49;22.85;;;12.57;;
68432;SDS011;55412;51.350;17.056;2023-02-15T12:01:21;22.87;;;9.73;;
68432;SDS011;55412;51.350;17.056;2023-02-15T12:07:00;17.17;;;8.15;;
68432;SDS011;55412;51.350;17.056;2023-02-15T12:09:59;19.90;;;10.77;;
68432;SDS011;55412;51.350;17.056;2023-02-15T12:12:39;19.83;;;8.90;;
68432;SDS011;55412;51.350;17.056;2023-02-15T12:15:09;20.73;;;9.43;;
68432;SDS011;55412;51.350;17.056;2023-02-15T12:17:52;25.40;;;12.52;;
68432;SDS011;55412;51.350;17.056;2023-02-15T12:20:27;21.25;;;7.10;;
68432;SDS011;55412;51.350;17.056;2023-02-15T12:23:03;22.00;;;9.90;;
68432;SDS011;55412;51.350;17.056;2023-02-15T12:25:41;17.90;;;8.00;;
68432;SDS011;55412;51.350;17.056;2023-02-15T12:31:07;22.92;;;9.95;;
68432;SDS011;55412;51.350;17.056;2023-02-15T12:33:49;27.23;;;12.18;;
68432;SDS011;55412;51.350;17.056;2023-02-15T12:36:24;21.38;;;11.00;;
68432;SDS011;55412;51.350;17.056;2023-02-15T12:41:45;33.03;;;13.53;;
68432;SDS011;55412;51.350;17.056;2023-02-15T12:44:52;27.23;;;10.32;;
68432;SDS011;55412;51.350;17.056;2023-02-15T12:47:28;21.02;;;8.40;;
68432;SDS011;55412;51.350;17.056;2023-02-15T12:50:06;22.33;;;9.00;;
68432;SDS011;55412;51.350;17.056;2023-02-15T12:53:02;23.13;;;10.48;;
68432;SDS011;55412;51.350;17.056;2023-02-15T12:56:01;32.00;;;12.83;;
68432;SDS011;55412;51.350;17.056;2023-02-15T12:58:32;24.55;;;10.43;;
68432;SDS011;55412;51.350;17.056;2023-02-15T13:03:53;24.00;;;10.73;;
68432;SDS011;55412;51.350;17.056;2023-02-15T13:06:28;24.98;;;10.15;;
68432;SDS011;55412;51.350;17.056;2023-02-15T13:11:43;18.98;;;8.68;;
68432;SDS011;55412;51.350;17.056;2023-02-15T13:14:20;25.05;;;11.52;;
68432;SDS011;55412;51.350;17.056;2023-02-15T13:16:57;26.48;;;10.68;;
68432;SDS011;55412;51.350;17.056;2023-02-15T13:19:46;25.85;;;11.30;;
68432;SDS011;55412;51.350;17.056;2023-02-15T13:22:25;29.67;;;12.70;;
68432;SDS011;55412;51.350;17.056;2023-02-15T13:25:12;30.00;;;12.68;;
68432;SDS011;55412;51.350;17.056;2023-02-15T13:27:54;29.45;;;13.52;;
68432;SDS011;55412;51.350;17.056;2023-02-15T13:30:35;19.50;;;10.27;;
68432;SDS011;55412;51.350;17.056;2023-02-15T13:38:49;32.58;;;13.93;;
68432;SDS011;55412;51.350;17.056;2023-02-15T13:59:25;28.33;;;10.75;;
68432;SDS011;55412;51.350;17.056;2023-02-15T14:05:09;27.03;;;11.83;;
68432;SDS011;55412;51.350;17.056;2023-02-15T14:08:17;32.70;;;13.50;;
68432;SDS011;55412;51.350;17.056;2023-02-15T14:17:09;33.67;;;14.75;;
68432;SDS011;55412;51.350;17.056;2023-02-15T14:20:02;36.50;;;16.00;;
68432;SDS011;55412;51.350;17.056;2023-02-15T14:22:44;35.92;;;15.52;;
68432;SDS011;55412;51.350;17.056;2023-02-15T14:25:51;32.20;;;13.43;;
68432;SDS011;55412;51.350;17.056;2023-02-15T14:28:51;30.98;;;13.52;;
68432;SDS011;55412;51.350;17.056;2023-02-15T14:32:00;21.10;;;9.30;;
68432;SDS011;55412;51.350;17.056;2023-02-15T14:34:48;15.23;;;7.27;;
68432;SDS011;55412;51.350;17.056;2023-02-15T14:37:20;24.45;;;12.00;;
68432;SDS011;55412;51.350;17.056;2023-02-15T14:59:38;22.90;;;11.50;;
68432;SDS011;55412;51.350;17.056;2023-02-15T15:04:37;24.02;;;9.98;;
68432;SDS011;55412;51.350;17.056;2023-02-15T15:09:59;30.45;;;10.30;;
68432;SDS011;55412;51.350;17.056;2023-02-15T15:12:43;31.90;;;11.67;;
68432;SDS011;55412;51.350;17.056;2023-02-15T15:17:57;25.13;;;13.10;;
68432;SDS011;55412;51.350;17.056;2023-02-15T15:20:49;27.95;;;11.35;;
68432;SDS011;55412;51.350;17.056;2023-02-15T15:25:44;22.37;;;8.50;;
68432;SDS011;55412;51.350;17.056;2023-02-15T15:42:37;27.85;;;10.70;;
68432;SDS011;55412;51.350;17.056;2023-02-15T15:48:18;30.80;;;11.88;;
68432;SDS011;55412;51.350;17.056;2023-02-15T15:51:12;22.80;;;9.38;;
68432;SDS011;55412;51.350;17.056;2023-02-15T15:54:05;25.73;;;10.13;;
68432;SDS011;55412;51.350;17.056;2023-02-15T15:56:32;29.17;;;12.02;;
68432;SDS011;55412;51.350;17.056;2023-02-15T15:59:02;31.10;;;12.82;;
68432;SDS011;55412;51.350;17.056;2023-02-15T16:01:37;30.52;;;11.88;;
68432;SDS011;55412;51.350;17.056;2023-02-15T16:04:12;27.92;;;12.48;;
68432;SDS011;55412;51.350;17.056;2023-02-15T16:06:48;29.03;;;11.20;;
68432;SDS011;55412;51.350;17.056;2023-02-15T16:09:18;28.08;;;10.48;;
68432;SDS011;55412;51.350;17.056;2023-02-15T16:11:54;29.02;;;10.05;;
68432;SDS011;55412;51.350;17.056;2023-02-15T16:14:31;38.10;;;14.05;;
68432;SDS011;55412;51.350;17.056;2023-02-15T16:17:02;38.65;;;15.13;;
68432;SDS011;55412;51.350;17.056;2023-02-15T16:19:33;41.50;;;15.67;;
68432;SDS011;55412;51.350;17.056;2023-02-15T16:22:04;46.45;;;18.58;;
68432;SDS011;55412;51.350;17.056;2023-02-15T16:27:48;38.15;;;16.05;;
68432;SDS011;55412;51.350;17.056;2023-02-15T16:33:03;41.97;;;16.83;;
68432;SDS011;55412;51.350;17.056;2023-02-15T16:35:48;50.20;;;17.40;;
68432;SDS011;55412;51.350;17.056;2023-02-15T16:41:09;45.30;;;17.63;;
68432;SDS011;55412;51.350;17.056;2023-02-15T16:43:58;43.65;;;17.02;;
68432;SDS011;55412;51.350;17.056;2023-02-15T16:46:31;51.07;;;17.70;;
68432;SDS011;55412;51.350;17.056;2023-02-15T16:49:02;39.08;;;15.10;;
68432;SDS011;55412;51.350;17.056;2023-02-15T16:51:57;37.72;;;13.70;;
68432;SDS011;55412;51.350;17.056;2023-02-15T16:54:25;32.80;;;14.05;;
68432;SDS011;55412;51.350;17.056;2023-02-15T16:56:53;36.15;;;14.57;;
68432;SDS011;55412;51.350;17.056;2023-02-15T16:59:41;39.47;;;13.97;;
68432;SDS011;55412;51.350;17.056;2023-02-15T17:02:22;47.22;;;15.95;;
68432;SDS011;55412;51.350;17.056;2023-02-15T17:07:40;54.53;;;17.50;;
68432;SDS011;55412;51.350;17.056;2023-02-15T17:10:31;56.17;;;21.52;;
68432;SDS011;55412;51.350;17.056;2023-02-15T17:13:13;59.30;;;21.73;;
68432;SDS011;55412;51.350;17.056;2023-02-15T17:15:42;48.70;;;17.90;;
68432;SDS011;55412;51.350;17.056;2023-02-15T17:18:44;53.13;;;17.65;;
68432;SDS011;55412;51.350;17.056;2023-02-15T17:21:20;49.08;;;16.02;;
68432;SDS011;55412;51.350;17.056;2023-02-15T17:23:56;42.75;;;15.98;;
68432;SDS011;55412;51.350;17.056;2023-02-15T17:26:35;45.20;;;16.63;;
68432;SDS011;55412;51.350;17.056;2023-02-15T17:31:58;44.45;;;16.60;;
68432;SDS011;55412;51.350;17.056;2023-02-15T17:37:22;28.88;;;9.43;;
68432;SDS011;55412;51.350;17.056;2023-02-15T17:40:07;15.67;;;7.73;;
68432;SDS011;55412;51.350;17.056;2023-02-15T17:42:50;20.23;;;7.78;;
68432;SDS011;55412;51.350;17.056;2023-02-15T17:45:17;34.00;;;12.95;;
68432;SDS011;55412;51.350;17.056;2023-02-15T17:47:45;42.78;;;13.23;;
68432;SDS011;55412;51.350;17.056;2023-02-15T17:50:22;33.70;;;12.82;;
68432;SDS011;55412;51.350;17.056;2023-02-15T17:52:51;18.53;;;5.80;;
68432;SDS011;55412;51.350;17.056;2023-02-15T17:55:20;32.50;;;10.98;;
68432;SDS011;55412;51.350;17.056;2023-02-15T17:58:00;36.50;;;13.57;;
68432;SDS011;55412;51.350;17.056;2023-02-15T18:00:30;35.53;;;12.45;;
68432;SDS011;55412;51.350;17.056;2023-02-15T18:03:15;34.65;;;13.45;;
68432;SDS011;55412;51.350;17.056;2023-02-15T18:06:00;32.90;;;13.30;;
68432;SDS011;55412;51.350;17.056;2023-02-15T18:08:45;40.33;;;14.35;;
68432;SDS011;55412;51.350;17.056;2023-02-15T18:11:29;36.25;;;13.82;;
68432;SDS011;55412;51.350;17.056;2023-02-15T18:14:05;35.67;;;13.50;;
68432;SDS011;55412;51.350;17.056;2023-02-15T18:16:35;40.35;;;15.27;;
68432;SDS011;55412;51.350;17.056;2023-02-15T18:19:05;35.57;;;12.47;;
68432;SDS011;55412;51.350;17.056;2023-02-15T18:21:39;47.67;;;17.65;;
68432;SDS011;55412;51.350;17.056;2023-02-15T18:24:07;46.83;;;15.77;;